Time;durP1;ratioP1;P1;durP2;ratioP2;P2;SDS_P1;SDS_P2;PMS_P1;PMS_P2;Temp;Humidity;BMP_temperature;BMP_pressure;BME280_temperature;BME280_humidity;BME280_pressure;Samples;Min_cycle;Max_cycle;Signal;HPM_P1;HPM_P2
2022/05/23 00:02:26;;;;;;;1.73;1.30;;;;;;;18.48;100.00;95627.59;5014456;28;103596;-60
2022/05/23 00:04:55;;;;;;;4.90;1.60;;;;;;;18.56;100.00;95626.81;5010571;28;103551;-60
2022/05/23 00:07:27;;;;;;;1.93;1.60;;;;;;;18.62;100.00;95625.53;5009728;28;103870;-60
2022/05/23 00:09:54;;;;;;;4.90;1.83;;;;;;;18.81;100.00;95627.88;5010268;28;102561;-60
2022/05/23 00:12:22;;;;;;;2.17;1.40;;;;;;;18.89;100.00;95627.06;5010194;28;104457;-60
2022/05/23 00:14:50;;;;;;;1.93;1.60;;;;;;;18.91;100.00;95628.31;5009759;28;104098;-60
2022/05/23 00:17:17;;;;;;;2.17;1.80;;;;;;;18.97;100.00;95623.56;5010175;28;101794;-60
2022/05/23 00:19:44;;;;;;;2.70;1.67;;;;;;;18.91;100.00;95619.47;5009899;28;105041;-60
2022/05/23 00:22:14;;;;;;;1.60;1.50;;;;;;;18.84;100.00;95619.13;5042895;27;105178;-60
2022/05/23 00:24:42;;;;;;;1.50;1.40;;;;;;;18.74;100.00;95625.66;5047375;27;102020;-61
2022/05/23 00:27:10;;;;;;;1.60;1.50;;;;;;;18.59;100.00;95623.47;5009496;28;104973;-61
2022/05/23 00:29:38;;;;;;;1.80;1.67;;;;;;;18.50;100.00;95624.59;5009862;28;102092;-60
2022/05/23 00:37:37;;;;;;;1.93;1.40;;;;;;;17.96;100.00;95627.88;5009450;28;101841;-60
2022/05/23 00:40:05;;;;;;;2.87;1.63;;;;;;;18.11;100.00;95622.03;5043236;27;105034;-60
2022/05/23 00:45:20;;;;;;;1.93;1.60;;;;;;;18.05;100.00;95612.53;5009933;28;101908;-60
2022/05/23 00:47:49;;;;;;;1.70;1.60;;;;;;;18.09;100.00;95610.81;5046314;27;104813;-60
2022/05/23 00:50:19;;;;;;;2.57;1.80;;;;;;;18.10;100.00;95609.69;5009734;28;101866;-60
2022/05/23 00:52:52;;;;;;;2.10;1.60;;;;;;;18.08;100.00;95610.00;5009530;28;103626;-61
2022/05/23 00:55:24;;;;;;;3.83;1.50;;;;;;;18.18;100.00;95600.81;5009033;28;105505;-60
2022/05/23 00:57:58;;;;;;;2.03;1.83;;;;;;;18.30;100.00;95599.06;5009303;28;101933;-60
2022/05/23 01:00:25;;;;;;;2.00;1.70;;;;;;;18.41;100.00;95599.56;5009147;28;105133;-61
2022/05/23 01:02:57;;;;;;;2.10;1.50;;;;;;;18.48;100.00;95589.91;5008835;28;105697;-61
2022/05/23 01:05:26;;;;;;;4.70;1.73;;;;;;;18.65;100.00;95600.63;5010971;28;101829;-60
2022/05/23 01:07:55;;;;;;;1.50;1.40;;;;;;;18.66;100.00;95596.06;5009445;28;105478;-61
2022/05/23 01:10:22;;;;;;;3.17;1.70;;;;;;;18.76;100.00;95598.41;5011839;28;101710;-60
2022/05/23 01:12:55;;;;;;;3.93;2.00;;;;;;;18.91;100.00;95587.13;5009364;28;105292;-60
2022/05/23 01:15:25;;;;;;;2.73;1.87;;;;;;;18.95;100.00;95582.66;5042207;27;105085;-60
2022/05/23 01:17:52;;;;;;;6.53;1.93;;;;;;;18.97;100.00;95589.31;5009295;28;101926;-60
2022/05/23 01:20:21;;;;;;;2.87;2.00;;;;;;;18.96;100.00;95587.72;5008922;28;105395;-60
2022/05/23 01:22:59;;;;;;;3.63;1.97;;;;;;;18.93;100.00;95590.28;5008497;28;106075;-60
2022/05/23 01:25:43;;;;;;;2.17;1.90;;;;;;;19.00;100.00;95591.38;5008966;28;102614;-61
2022/05/23 01:28:21;;;;;;;2.90;1.73;;;;;;;18.82;100.00;95579.06;5009051;28;105493;-60
2022/05/23 01:30:49;;;;;;;3.20;1.70;;;;;;;18.66;100.00;95585.28;5011865;28;105525;-60
2022/05/23 01:33:25;;;;;;;2.43;1.53;;;;;;;18.52;100.00;95573.91;5009099;28;105011;-60
2022/05/23 01:35:52;;;;;;;3.27;1.43;;;;;;;18.14;100.00;95575.66;5008001;28;104675;-60
2022/05/23 01:38:19;;;;;;;7.00;2.07;;;;;;;18.33;100.00;95573.44;5009052;28;102204;-61
2022/05/23 01:40:59;;;;;;;3.50;1.63;;;;;;;18.46;100.00;95572.47;5008919;28;104520;-61
2022/05/23 01:43:27;;;;;;;3.63;1.90;;;;;;;18.52;100.00;95577.38;5007936;28;105799;-61
2022/05/23 01:46:30;;;;;;;1.80;1.70;;;;;;;18.36;100.00;95572.84;5005886;28;103095;-60
2022/05/23 01:49:15;;;;;;;3.70;2.00;;;;;;;18.59;100.00;95579.59;5007255;28;102630;-60
2022/05/23 01:51:42;;;;;;;3.27;1.70;;;;;;;18.59;100.00;95583.06;5007932;28;105305;-60
2022/05/23 01:54:12;;;;;;;2.27;1.87;;;;;;;18.59;100.00;95575.00;5012054;28;101939;-60
2022/05/23 01:56:41;;;;;;;2.13;2.00;;;;;;;18.16;100.00;95581.50;5041382;27;105614;-60
2022/05/23 02:01:58;;;;;;;2.40;1.63;;;;;;;18.16;100.00;95574.22;5008091;28;104815;-60
2022/05/23 02:04:36;;;;;;;2.67;1.80;;;;;;;17.99;100.00;95576.91;5007832;28;105664;-61
2022/05/23 02:07:03;;;;;;;2.30;1.77;;;;;;;18.29;100.00;95575.16;5008523;28;102317;-60
2022/05/23 02:09:34;;;;;;;3.93;2.10;;;;;;;18.17;100.00;95572.31;5008582;28;104668;-60
2022/05/23 02:12:23;;;;;;;2.67;1.90;;;;;;;18.31;100.00;95570.28;5008825;28;104093;-60
2022/05/23 02:14:53;;;;;;;3.60;2.10;;;;;;;18.41;100.00;95572.63;5008271;28;101926;-61
2022/05/23 02:17:49;;;;;;;2.90;1.83;;;;;;;18.37;100.00;95571.72;5009483;28;102277;-60
2022/05/23 02:20:18;;;;;;;2.27;1.90;;;;;;;18.14;100.00;95562.97;5008185;28;101903;-60
2022/05/23 02:22:45;;;;;;;3.10;2.00;;;;;;;18.24;100.00;95568.06;5041755;27;105207;-60
2022/05/23 02:25:19;;;;;;;1.77;1.67;;;;;;;18.21;100.00;95565.97;5007493;28;104774;-60
2022/05/23 02:27:47;;;;;;;1.73;1.63;;;;;;;18.03;100.00;95567.09;5008184;28;101797;-60
2022/05/23 02:30:15;;;;;;;1.97;1.87;;;;;;;17.78;100.00;95569.78;5008108;28;105101;-60
2022/05/23 02:32:45;;;;;;;3.00;1.67;;;;;;;17.86;100.00;95572.47;5024341;28;105098;-60
2022/05/23 02:35:14;;;;;;;1.97;1.87;;;;;;;18.02;100.00;95576.28;5008265;28;101801;-60
2022/05/23 02:37:40;;;;;;;3.10;1.90;;;;;;;18.28;100.00;95569.00;5008038;28;105601;-60
2022/05/23 02:40:08;;;;;;;2.57;1.87;;;;;;;18.50;100.00;95568.03;5010837;28;105042;-60
2022/05/23 02:42:35;;;;;;;3.23;1.90;;;;;;;18.55;100.00;95567.88;5008213;28;103530;-60
2022/05/23 02:45:08;;;;;;;1.80;1.70;;;;;;;18.43;100.00;95560.44;5007373;28;105375;-60
2022/05/23 02:47:40;;;;;;;2.53;1.60;;;;;;;18.62;100.00;95566.28;5007908;28;101964;-60
2022/05/23 02:50:09;;;;;;;1.80;1.70;;;;;;;18.71;100.00;95555.50;5007844;28;105697;-60
2022/05/23 02:52:44;;;;;;;3.20;1.97;;;;;;;18.71;100.00;95553.59;5007371;28;105453;-60
2022/05/23 02:55:15;;;;;;;1.80;1.70;;;;;;;18.46;100.00;95564.41;5009667;28;101837;-60
2022/05/23 02:57:43;;;;;;;1.80;1.70;;;;;;;18.45;100.00;95565.50;5011264;28;105268;-60
2022/05/23 03:00:19;;;;;;;1.80;1.70;;;;;;;18.39;100.00;95556.84;5043723;27;105059;-60
2022/05/23 03:03:06;;;;;;;1.90;1.63;;;;;;;18.47;100.00;95564.09;5048350;27;101812;-60
2022/05/23 03:05:43;;;;;;;3.50;2.00;;;;;;;18.67;100.00;95559.94;5010748;28;104345;-60
2022/05/23 03:08:13;;;;;;;1.77;1.67;;;;;;;18.60;100.00;95565.03;5011230;28;101830;-60
2022/05/23 03:10:40;;;;;;;2.97;2.03;;;;;;;18.55;100.00;95559.81;5011015;28;103795;-61
2022/05/23 03:13:10;;;;;;;2.53;1.80;;;;;;;18.42;100.00;95560.78;5010572;28;102845;-60
2022/05/23 03:15:39;;;;;;;4.20;1.70;;;;;;;18.11;100.00;95555.56;5012539;28;102352;-60
2022/05/23 03:18:06;;;;;;;2.73;1.87;;;;;;;18.27;100.00;95551.28;5010984;28;103535;-60
2022/05/23 03:20:37;;;;;;;2.13;1.90;;;;;;;18.43;100.00;95557.75;5010419;28;105056;-60
2022/05/23 03:28:33;;;;;;;2.97;1.90;;;;;;;18.21;100.00;95555.22;5011046;28;102406;-60
2022/05/23 03:31:03;;;;;;;3.07;1.90;;;;;;;18.28;100.00;95546.66;5010880;28;105457;-60
2022/05/23 03:33:32;;;;;;;2.00;1.90;;;;;;;18.34;100.00;95542.72;5010133;28;105544;-60
2022/05/23 03:36:00;;;;;;;3.90;2.10;;;;;;;18.30;100.00;95533.66;5010495;28;101947;-60
2022/05/23 03:38:28;;;;;;;3.27;2.40;;;;;;;18.23;100.00;95534.19;5010751;28;104799;-60
2022/05/23 03:40:56;;;;;;;3.17;2.00;;;;;;;18.16;100.00;95528.47;5011421;28;103584;-60
2022/05/23 03:43:23;;;;;;;3.17;2.20;;;;;;;17.94;100.00;95534.00;5010625;28;101972;-60
2022/05/23 03:45:50;;;;;;;4.57;2.13;;;;;;;18.16;100.00;95541.91;5013297;28;105599;-60
2022/05/23 03:48:19;;;;;;;2.20;2.00;;;;;;;18.12;100.00;95532.91;5010623;28;101892;-60
2022/05/23 03:50:46;;;;;;;3.03;1.97;;;;;;;18.27;100.00;95534.31;5044083;27;104700;-60
2022/05/23 03:53:13;;;;;;;3.00;2.10;;;;;;;18.45;100.00;95515.16;5009940;28;105137;-60
2022/05/23 03:55:46;;;;;;;4.53;2.00;;;;;;;18.38;100.00;95519.44;5010342;28;101889;-60
2022/05/23 03:58:21;;;;;;;4.23;2.00;;;;;;;18.43;100.00;95527.38;5010480;28;104912;-60
2022/05/23 04:01:16;;;;;;;5.37;2.40;;;;;;;18.49;100.00;95520.69;5009574;28;104386;-60
2022/05/23 04:03:48;;;;;;;5.03;2.00;;;;;;;18.47;100.00;95514.84;5009838;28;101874;-60
2022/05/23 04:06:16;;;;;;;4.40;2.20;;;;;;;18.53;100.00;95521.66;5010397;28;104383;-60
2022/05/23 04:08:52;;;;;;;3.80;1.93;;;;;;;18.41;100.00;95532.25;5013289;28;105269;-60
2022/05/23 04:11:20;;;;;;;4.80;1.77;;;;;;;18.20;100.00;95528.66;5010369;28;104791;-60
2022/05/23 04:13:47;;;;;;;2.57;2.10;;;;;;;18.00;100.00;95523.91;5009314;28;105840;-60
2022/05/23 04:16:14;;;;;;;2.97;2.43;;;;;;;18.38;100.00;95519.44;5010122;28;101869;-60
2022/05/23 04:18:45;;;;;;;4.43;2.20;;;;;;;18.51;100.00;95513.06;5010223;28;105093;-60
2022/05/23 04:21:13;;;;;;;3.53;2.10;;;;;;;18.39;100.00;95505.69;5009272;28;105873;-60
2022/05/23 04:23:46;;;;;;;3.27;2.30;;;;;;;18.31;100.00;95513.75;5043728;27;101787;-60
2022/05/23 04:26:13;;;;;;;3.37;2.03;;;;;;;18.47;100.00;95504.09;5043789;27;105143;-60
2022/05/23 04:28:41;;;;;;;3.43;2.40;;;;;;;18.61;100.00;95499.28;5009130;28;105345;-60
2022/05/23 04:31:10;;;;;;;2.50;2.10;;;;;;;18.66;100.00;95496.41;5013462;28;102227;-60
2022/05/23 04:36:56;;;;;;;2.50;1.97;;;;;;;18.70;100.00;95489.28;5009783;28;101907;-60
2022/05/23 04:39:35;;;;;;;2.97;2.50;;;;;;;18.69;100.00;95485.00;5009922;28;103695;-60
2022/05/23 04:42:03;;;;;;;4.30;2.37;;;;;;;18.72;100.00;95470.88;5008953;28;105164;-60
2022/05/23 04:44:31;;;;;;;2.80;2.30;;;;;;;18.81;100.00;95468.94;5009859;28;102523;-60
2022/05/23 04:49:49;;;;;;;2.43;1.93;;;;;;;18.95;100.00;95472.19;5009023;28;105678;-61
2022/05/23 04:52:44;;;;;;;2.53;2.20;;;;;;;18.31;100.00;95470.69;5009077;28;102015;-60
2022/05/23 04:55:41;;;;;;;2.87;2.30;;;;;;;18.25;100.00;95472.75;5012811;28;104781;-60
2022/05/23 04:58:25;;;;;;;2.90;2.30;;;;;;;18.22;100.00;95472.59;5009973;28;101939;-60
2022/05/23 05:00:53;;;;;;;3.20;2.53;;;;;;;18.08;100.00;95474.66;5009762;28;105086;-60
2022/05/23 05:03:20;;;;;;;3.87;2.73;;;;;;;18.10;100.00;95464.38;5008469;28;105103;-60
2022/05/23 05:05:50;;;;;;;2.70;2.50;;;;;;;18.18;100.00;95460.88;5008727;28;101902;-62
2022/05/23 05:08:20;;;;;;;3.97;2.97;;;;;;;18.19;100.00;95462.44;5009290;28;105396;-62
2022/05/23 05:10:53;;;;;;;2.60;2.40;;;;;;;18.27;100.00;95459.78;5008629;28;105571;-62
2022/05/23 05:13:21;;;;;;;5.87;2.93;;;;;;;18.65;100.00;95459.81;5009116;28;101925;-62
2022/05/23 05:15:48;;;;;;;4.17;2.70;;;;;;;18.78;100.00;95450.72;5025671;28;105115;-62
2022/05/23 05:18:28;;;;;;;6.63;2.70;;;;;;;19.14;100.00;95456.41;5011468;28;104917;-62
2022/05/23 05:21:16;;;;;;;3.80;2.63;;;;;;;19.16;100.00;95452.28;5009260;28;104566;-62
2022/05/23 05:24:04;;;;;;;11.77;2.30;;;;;;;19.42;100.00;95446.72;5007230;28;102273;-62
2022/05/23 05:26:36;;;;;;;3.53;2.10;;;;;;;19.38;100.00;95440.41;5008696;28;102224;-62
2022/05/23 05:29:04;;;;;;;3.47;2.20;;;;;;;19.37;100.00;95449.63;5009104;28;105219;-62
2022/05/23 05:31:36;;;;;;;4.83;2.00;;;;;;;19.41;100.00;95445.94;5008156;28;105140;-62
2022/05/23 05:34:08;;;;;;;7.63;2.70;;;;;;;19.71;100.00;95450.16;5009128;27;102578;-63
2022/05/23 05:36:41;;;;;;;4.90;2.47;;;;;;;19.70;100.00;95447.78;5008983;28;105638;-62
2022/05/23 05:39:10;;;;;;;4.40;1.97;;;;;;;19.43;100.00;95451.00;5011566;28;103825;-62
2022/05/23 05:41:41;;;;;;;6.13;2.47;;;;;;;19.62;100.00;95443.25;5010199;28;102697;-62
2022/05/23 05:44:13;;;;;;;4.57;2.10;;;;;;;19.77;100.00;95443.44;5008002;28;105304;-62
2022/05/23 05:46:48;;;;;;;4.40;2.43;;;;;;;19.88;100.00;95443.81;5008745;28;101878;-62
2022/05/23 05:49:29;;;;;;;3.00;2.10;;;;;;;19.89;100.00;95448.09;5008688;28;105114;-62
2022/05/23 05:52:10;;;;;;;4.47;1.83;;;;;;;19.86;100.00;95446.06;5007990;28;105350;-62
2022/05/23 05:55:10;;;;;;;2.50;2.20;;;;;;;19.87;100.00;95442.22;5009458;28;102244;-62
2022/05/23 05:57:42;;;;;;;2.20;2.00;;;;;;;20.07;100.00;95436.84;5008523;28;105330;-62
2022/05/23 06:00:11;;;;;;;4.70;2.40;;;;;;;20.31;100.00;95442.31;5007753;28;105558;-62
2022/05/23 06:02:52;;;;;;;2.47;1.93;;;;;;;20.17;100.00;95441.03;5011977;28;102044;-62
2022/05/23 06:05:22;;;;;;;2.13;1.93;;;;;;;20.14;100.00;95436.28;5007537;28;104188;-62
2022/05/23 06:13:49;;;;;;;4.43;2.77;;;;;;;20.29;100.00;95432.97;5007738;28;105340;-62
2022/05/23 06:16:39;;;;;;;2.47;2.20;;;;;;;20.63;100.00;95430.66;5008145;28;102121;-63
2022/05/23 06:19:15;;;;;;;2.70;2.10;;;;;;;20.47;100.00;95427.03;5008282;28;104723;-63
2022/05/23 06:21:59;;;;;;;3.57;2.10;;;;;;;20.67;100.00;95428.88;5007656;28;105963;-63
2022/05/23 06:24:26;;;;;;;3.10;1.90;;;;;;;20.72;100.00;95425.91;5008311;28;101959;-64
2022/05/23 06:27:02;;;;;;;3.27;1.90;;;;;;;20.78;100.00;95435.41;5012293;28;102768;-65
2022/05/23 06:29:36;;;;;;;4.13;2.03;;;;;;;20.56;100.00;95419.63;5006946;28;101759;-64
2022/05/23 06:32:24;;;;;;;2.00;1.80;;;;;;;20.77;100.00;95419.53;5026272;28;103179;-67
2022/05/23 06:35:07;;;;;;;2.50;2.10;;;;;;;21.12;100.00;95423.34;5031276;28;105651;-66
2022/05/23 06:37:36;;;;;;;3.63;2.20;;;;;;;21.18;100.00;95417.38;5032089;28;102173;-67
2022/05/23 06:40:24;;;;;;;4.50;2.03;;;;;;;21.37;100.00;95420.28;5032087;28;104218;-66
2022/05/23 06:43:12;;;;;;;3.57;2.13;;;;;;;21.44;100.00;95414.28;5033197;28;102318;-70
2022/05/23 06:46:00;;;;;;;2.53;1.93;;;;;;;21.27;100.00;95419.97;5021082;27;102117;-65
2022/05/23 06:48:47;;;;;;;3.00;2.10;;;;;;;21.32;100.00;95425.13;5011269;28;102872;-62
2022/05/23 06:51:24;;;;;;;2.63;1.90;;;;;;;21.01;100.00;95427.66;5034769;28;105690;-61
2022/05/23 06:57:33;;;;;;;3.20;2.00;;;;;;;20.42;100.00;95434.56;5030837;28;105063;-63
2022/05/23 07:00:09;;;;;;;3.87;2.03;;;;;;;20.09;100.00;95418.41;5031364;28;102225;-63
2022/05/23 07:02:36;;;;;;;4.83;2.00;;;;;;;20.21;100.00;95429.22;5031333;28;105326;-64
2022/05/23 07:14:04;;;;;;;3.23;2.07;;;;;;;19.89;100.00;95443.47;5030092;28;105120;-65
2022/05/23 07:16:34;;;;;;;3.00;2.30;;;;;;;19.94;100.00;95447.91;5034576;28;101974;-66
2022/05/23 07:19:02;;;;;;;4.70;2.40;;;;;;;20.02;100.00;95447.81;5031107;28;105160;-63
2022/05/23 07:21:36;;;;;;;6.83;2.47;;;;;;;20.18;100.00;95448.00;5031206;28;101908;-63
2022/05/23 07:24:10;;;;;;;4.27;2.23;;;;;;;20.09;100.00;95441.91;5031709;28;104838;-63
2022/05/23 07:26:44;;;;;;;4.60;2.40;;;;;;;20.08;100.00;95443.03;5029679;28;105454;-63
2022/05/23 07:29:14;;;;;;;2.53;2.10;;;;;;;20.19;100.00;95452.28;5030654;28;102649;-63
2022/05/23 07:31:44;;;;;;;3.43;2.60;;;;;;;20.09;100.00;95463.50;5030832;28;104867;-63
2022/05/23 07:34:12;;;;;;;2.90;2.37;;;;;;;20.32;100.00;95472.81;5030449;28;106145;-63
2022/05/23 07:36:39;;;;;;;5.40;2.67;;;;;;;20.56;100.00;95473.66;5030539;28;101839;-64
2022/05/23 07:39:09;;;;;;;5.03;2.47;;;;;;;20.53;100.00;95481.63;5032635;28;105013;-64
2022/05/23 07:41:50;;;;;;;4.23;2.63;;;;;;;20.97;100.00;95478.91;5030056;27;102061;-64
2022/05/23 07:44:22;;;;;;;4.07;2.50;;;;;;;20.60;100.00;95476.47;5030849;28;105702;-63
2022/05/23 07:46:53;;;;;;;3.33;2.30;;;;;;;20.76;100.00;95470.06;5030325;28;105440;-63
2022/05/23 07:49:21;;;;;;;5.80;3.07;;;;;;;21.06;100.00;95478.78;5030581;28;101875;-63
2022/05/23 07:52:01;;;;;;;2.87;2.40;;;;;;;21.06;100.00;95484.19;5030399;28;103713;-63
2022/05/23 08:02:59;;;;;;;3.40;2.40;;;;;;;20.27;100.00;95502.72;5030405;28;101820;-63
2022/05/23 08:05:26;;;;;;;8.83;2.80;;;;;;;20.35;100.00;95507.22;5030183;28;104765;-63
2022/05/23 08:07:57;;;;;;;5.10;2.80;;;;;;;20.88;100.00;95510.59;5029657;28;105298;-64
2022/05/23 08:10:26;;;;;;;3.37;2.77;;;;;;;20.56;100.00;95543.88;5030395;28;101940;-63
2022/05/23 08:12:56;;;;;;;6.93;2.63;;;;;;;20.18;100.00;95577.59;5030277;28;104987;-64
2022/05/23 08:15:25;;;;;;;2.73;2.37;;;;;;;19.93;100.00;95567.75;5029975;28;105116;-63
2022/05/23 08:18:04;;;;;;;4.57;2.27;;;;;;;20.10;100.00;95562.25;5030233;28;101808;-63
2022/05/23 08:20:37;;;;;;;4.17;2.80;;;;;;;19.96;100.00;95589.50;5030046;28;105289;-63
2022/05/23 08:23:04;;;;;;;3.00;2.73;;;;;;;19.98;100.00;95579.13;5032729;28;105122;-63
2022/05/23 08:25:35;;;;;;;3.13;2.27;;;;;;;20.12;100.00;95584.31;5030279;28;104900;-63
2022/05/23 08:28:03;;;;;;;4.20;2.80;;;;;;;19.77;100.00;95582.91;5029611;28;105154;-63
2022/05/23 08:30:30;;;;;;;3.70;3.07;;;;;;;19.99;100.00;95586.13;5030062;28;102165;-63
2022/05/23 08:33:12;;;;;;;3.80;3.20;;;;;;;19.93;100.00;95575.84;5030047;28;104654;-63
2022/05/23 08:35:39;;;;;;;4.50;3.13;;;;;;;19.91;100.00;95569.97;5029422;28;105376;-63
2022/05/23 08:38:07;;;;;;;4.37;3.20;;;;;;;19.85;100.00;95568.59;5029946;28;101867;-63
2022/05/23 08:41:06;;;;;;;4.87;3.13;;;;;;;19.96;100.00;95553.59;5026274;28;102156;-63
2022/05/23 08:43:45;;;;;;;8.33;2.80;;;;;;;19.91;100.00;95541.09;5029051;28;104104;-63
2022/05/23 08:46:18;;;;;;;5.50;2.97;;;;;;;19.93;100.00;95549.66;5033333;28;101828;-63
2022/05/23 08:49:03;;;;;;;4.50;2.90;;;;;;;19.91;100.00;95565.38;5029197;28;104925;-63
2022/05/23 08:51:42;;;;;;;4.00;3.10;;;;;;;20.11;100.00;95566.53;5029186;27;102081;-63
2022/05/23 08:54:21;;;;;;;7.47;3.20;;;;;;;20.40;100.00;95559.13;5029110;28;105258;-63
2022/05/23 08:57:15;;;;;;;4.50;3.10;;;;;;;20.94;100.00;95560.69;5030664;28;102290;-63
2022/05/23 08:59:48;;;;;;;7.13;3.40;;;;;;;21.20;100.00;95560.38;5028993;28;101820;-64
2022/05/23 09:02:32;;;;;;;6.23;3.23;;;;;;;21.26;100.00;95551.69;5029558;28;104678;-63
2022/05/23 09:05:06;;;;;;;5.40;3.00;;;;;;;21.96;100.00;95553.13;5028321;28;105154;-63
2022/05/23 09:07:40;;;;;;;3.77;2.97;;;;;;;22.42;100.00;95541.69;5031144;27;101828;-63
2022/05/23 09:10:14;;;;;;;3.30;3.00;;;;;;;22.70;100.00;95532.44;5032239;28;105116;-63
2022/05/23 09:12:41;;;;;;;4.53;2.83;;;;;;;22.81;100.00;95532.69;5029396;28;101928;-63
2022/05/23 09:15:09;;;;;;;3.60;2.80;;;;;;;22.76;100.00;95530.25;5029164;28;105300;-63
2022/05/23 09:17:40;;;;;;;5.27;3.03;;;;;;;22.84;100.00;95508.38;5028470;28;105490;-63
2022/05/23 09:20:12;;;;;;;3.30;2.70;;;;;;;22.80;100.00;95493.97;5029077;28;101832;-63
2022/05/23 09:22:47;;;;;;;4.30;3.07;;;;;;;22.78;100.00;95481.91;5029016;28;104809;-63
2022/05/23 09:25:17;;;;;;;3.50;3.20;;;;;;;22.81;100.00;95464.94;5030138;27;102634;-63
2022/05/23 09:27:48;;;;;;;6.53;3.40;;;;;;;23.05;100.00;95448.50;5029018;28;102032;-63
2022/05/23 09:30:19;;;;;;;4.63;3.20;;;;;;;22.81;100.00;95429.69;5029066;28;103538;-63
2022/05/23 09:32:53;;;;;;;6.23;3.10;;;;;;;22.85;100.00;95438.69;5031693;28;106095;-63
2022/05/23 09:35:24;;;;;;;4.57;2.97;;;;;;;23.17;100.00;95432.13;5028798;28;104810;-63
2022/05/23 09:38:14;;;;;;;3.80;3.07;;;;;;;23.29;100.00;95421.19;5028467;28;106295;-63
2022/05/23 09:40:55;;;;;;;7.70;3.37;;;;;;;23.51;100.00;95417.78;5028905;28;102089;-64
2022/05/23 09:49:14;;;;;;;4.33;3.10;;;;;;;24.19;100.00;95399.81;5029940;28;102135;-64
2022/05/23 09:51:58;;;;;;;2.90;2.60;;;;;;;24.32;100.00;95401.22;5029549;27;103424;-63
2022/05/23 09:54:34;;;;;;;6.97;2.97;;;;;;;24.38;100.00;95399.75;5060446;27;106035;-64
2022/05/23 09:57:04;;;;;;;4.60;3.20;;;;;;;24.47;100.00;95384.03;5033811;27;101824;-63
2022/05/23 09:59:33;;;;;;;4.47;2.57;;;;;;;24.57;100.00;95375.25;5027138;28;103916;-64
2022/05/23 10:02:05;;;;;;;3.03;2.73;;;;;;;24.56;100.00;95373.66;5028126;28;101998;-64
2022/05/23 10:04:45;;;;;;;5.37;3.10;;;;;;;24.63;100.00;95363.72;5028076;28;104804;-64
2022/05/23 10:07:29;;;;;;;3.10;2.43;;;;;;;24.68;100.00;95365.38;5029844;28;103229;-63
2022/05/23 10:09:58;;;;;;;4.97;2.60;;;;;;;24.56;100.00;95358.16;5008904;28;101917;-63
2022/05/23 10:12:38;;;;;;;5.10;2.83;;;;;;;24.52;100.00;95345.66;5014247;28;105685;-64
2022/05/23 10:15:18;;;;;;;4.83;3.00;;;;;;;24.37;100.00;95338.41;5028260;28;103991;-64
2022/05/23 10:17:58;;;;;;;3.73;2.70;;;;;;;24.44;100.00;95335.81;5033981;27;102120;-63
2022/05/23 10:20:29;;;;;;;4.97;2.70;;;;;;;24.39;100.00;95326.03;5029866;28;102708;-64
2022/05/23 10:23:01;;;;;;;3.13;2.60;;;;;;;24.53;100.00;95320.06;5029321;28;101880;-64
2022/05/23 10:25:32;;;;;;;5.83;2.60;;;;;;;24.55;100.00;95318.53;5028830;28;105492;-63
2022/05/23 10:28:17;;;;;;;4.17;2.30;;;;;;;24.57;100.00;95318.94;5029315;28;102682;-64
2022/05/23 10:30:57;;;;;;;4.10;2.93;;;;;;;24.78;100.00;95318.50;5028404;28;102387;-64
2022/05/23 10:33:28;;;;;;;4.40;3.10;;;;;;;24.95;100.00;95304.41;5028492;28;105033;-64
2022/05/23 10:36:03;;;;;;;5.50;3.07;;;;;;;25.30;100.00;95311.16;5029247;28;103198;-64
2022/05/23 10:44:26;;;;;;;3.97;2.50;;;;;;;25.67;100.00;95292.16;5029099;28;101746;-64
2022/05/23 10:47:03;;;;;;;5.17;2.93;;;;;;;25.64;100.00;95290.16;5029573;27;102766;-64
2022/05/23 10:49:38;;;;;;;3.50;2.67;;;;;;;25.51;100.00;95277.97;5029092;27;102513;-64
2022/05/23 10:52:14;;;;;;;4.27;2.63;;;;;;;25.72;100.00;95278.97;5028235;28;102000;-64
2022/05/23 10:55:15;;;;;;;3.50;2.70;;;;;;;25.73;100.00;95274.31;5030220;28;102410;-64
2022/05/23 10:58:01;;;;;;;4.03;3.03;;;;;;;25.80;100.00;95263.50;5027688;28;105542;-64
2022/05/23 11:00:37;;;;;;;3.20;2.60;;;;;;;25.71;100.00;95261.06;5027415;28;101955;-64
2022/05/23 11:03:12;;;;;;;4.10;2.73;;;;;;;25.56;100.00;95262.06;5030001;28;102747;-64
2022/05/23 11:06:11;;;;;;;4.77;2.60;;;;;;;25.60;100.00;95267.56;5030764;28;106316;-64
2022/05/23 11:09:00;;;;;;;3.73;2.67;;;;;;;25.76;100.00;95257.22;5028258;28;105372;-64
2022/05/23 11:11:45;;;;;;;4.70;2.87;;;;;;;25.59;100.00;95253.16;5027385;28;106553;-64
2022/05/23 11:14:46;;;;;;;2.70;2.50;;;;;;;25.77;100.00;95247.91;5028104;28;101849;-64
2022/05/23 11:17:28;;;;;;;4.17;2.60;;;;;;;26.29;100.00;95236.72;5030985;28;103738;-64
2022/05/23 11:20:07;;;;;;;3.63;2.53;;;;;;;26.31;100.00;95239.88;5030284;28;105246;-64
2022/05/23 11:22:37;;;;;;;2.90;2.60;;;;;;;26.68;100.00;95235.09;5031154;28;101843;-64
2022/05/23 11:25:26;;;;;;;4.53;2.83;;;;;;;27.08;100.00;95235.72;5031541;28;105394;-64
2022/05/23 11:34:05;;;;;;;3.90;2.37;;;;;;;27.31;99.86;95227.28;5032198;27;103090;-64
2022/05/23 11:36:56;;;;;;;3.77;2.47;;;;;;;27.75;96.38;95219.59;5032725;27;102020;-64
2022/05/23 11:39:46;;;;;;;3.23;2.20;;;;;;;28.37;90.05;95220.84;5032505;28;102588;-64
2022/05/23 11:42:17;;;;;;;2.33;2.13;;;;;;;28.01;82.12;95211.09;5031637;28;103198;-64
2022/05/23 11:48:02;;;;;;;3.90;2.20;;;;;;;28.05;89.32;95201.72;5032625;27;102513;-64
2022/05/23 11:50:32;;;;;;;5.37;2.00;;;;;;;27.94;81.33;95205.59;5031882;27;102969;-64
2022/05/23 11:53:11;;;;;;;3.53;2.20;;;;;;;27.87;81.49;95197.41;5030637;28;102221;-64
2022/05/23 11:56:03;;;;;;;5.23;2.40;;;;;;;27.64;79.92;95195.00;5033199;28;103588;-64
2022/05/23 11:58:47;;;;;;;4.33;2.13;;;;;;;28.00;86.45;95188.44;5029999;27;102374;-64
2022/05/23 12:01:32;;;;;;;3.23;1.90;;;;;;;28.58;79.88;95180.63;5031442;27;102298;-64
2022/05/23 12:04:16;;;;;;;3.23;1.97;;;;;;;28.72;82.62;95177.84;5012697;28;105801;-64
2022/05/23 12:06:48;;;;;;;5.73;2.30;;;;;;;28.49;87.05;95168.53;5030339;28;101865;-64
2022/05/23 12:09:37;;;;;;;2.50;2.20;;;;;;;28.93;82.71;95168.81;5031908;28;102914;-64
2022/05/23 12:12:37;;;;;;;3.05;1.90;;;;;;;29.07;75.25;95166.81;5031335;28;102759;-64
2022/05/23 12:15:05;;;;;;;4.43;2.15;;;;;;;29.20;77.65;95156.97;5027452;28;101902;-64
2022/05/23 12:17:35;;;;;;;4.20;2.10;;;;;;;28.94;76.39;95148.47;5031351;27;102560;-64
2022/05/23 12:20:06;;;;;;;6.00;2.67;;;;;;;28.74;75.24;95141.88;5034686;27;101700;-64
2022/05/23 12:22:36;;;;;;;3.13;2.70;;;;;;;28.85;75.44;95135.19;5032105;27;102403;-64
2022/05/23 12:25:33;;;;;;;4.88;2.10;;;;;;;29.27;76.40;95115.84;5031545;28;102646;-64
2022/05/23 12:32:26;;;;;;;3.47;2.17;;;;;;;29.60;65.02;95103.56;5028503;28;102084;-64
2022/05/23 12:35:33;;;;;;;3.10;1.98;;;;;;;29.31;62.78;95091.22;5031661;27;102727;-64
2022/05/23 12:38:09;;;;;;;5.30;2.42;;;;;;;29.49;67.84;95089.13;5031414;28;101889;-64
2022/05/23 12:40:47;;;;;;;3.90;2.00;;;;;;;29.76;61.85;95079.19;5031573;27;102294;-64
2022/05/23 12:43:29;;;;;;;5.07;2.20;;;;;;;29.71;62.94;95082.34;5034356;28;102525;-64
2022/05/23 12:46:09;;;;;;;5.35;2.28;;;;;;;29.90;62.57;95074.34;5031914;27;102800;-64
2022/05/23 12:49:02;;;;;;;3.97;1.98;;;;;;;30.05;60.92;95069.50;5030995;27;103014;-64
2022/05/23 12:51:42;;;;;;;5.90;1.90;;;;;;;30.43;55.47;95063.69;5031697;28;101864;-64
2022/05/23 12:54:35;;;;;;;3.75;1.80;;;;;;;30.57;54.90;95068.22;5031937;27;102455;-64
2022/05/23 12:57:27;;;;;;;3.38;2.30;;;;;;;30.35;58.02;95067.66;5030716;27;102594;-64
2022/05/23 12:59:59;;;;;;;3.88;2.10;;;;;;;29.62;58.59;95069.09;5014143;28;102017;-64
2022/05/23 13:02:33;;;;;;;5.07;1.90;;;;;;;30.63;57.32;95063.84;5031701;27;101696;-64
2022/05/23 13:05:16;;;;;;;3.60;1.88;;;;;;;31.25;52.55;95067.81;5029099;28;105905;-64
2022/05/23 13:07:56;;;;;;;4.43;2.22;;;;;;;30.79;52.48;95053.84;5033162;28;102037;-64
2022/05/23 13:10:27;;;;;;;4.07;2.10;;;;;;;30.91;54.03;95033.31;5030424;28;102649;-64